createdAt,value
2019-02-27T00:01:53.364Z,41.54
2019-02-27T00:04:19.362Z,41.36
2019-02-27T00:06:47.703Z,41.69
2019-02-27T00:09:11.362Z,41.71
2019-02-27T00:11:37.355Z,41.61
2019-02-27T00:14:03.358Z,41.75
2019-02-27T00:16:29.349Z,41.93
2019-02-27T00:18:58.632Z,41.86
2019-02-27T00:21:21.349Z,41.81
2019-02-27T00:23:47.347Z,41.45
2019-02-27T00:26:13.345Z,41.65
2019-02-27T00:28:39.403Z,41.78
2019-02-27T00:31:05.402Z,41.77
2019-02-27T00:33:31.403Z,41.80
2019-02-27T00:35:57.404Z,41.66
2019-02-27T00:38:25.211Z,41.53
2019-02-27T00:40:49.405Z,41.63
2019-02-27T00:43:15.399Z,41.50
2019-02-27T00:45:41.406Z,41.73
2019-02-27T00:48:07.403Z,41.71
2019-02-27T00:50:33.404Z,41.69
2019-02-27T00:52:59.395Z,41.79
2019-02-27T00:55:25.396Z,41.73
2019-02-27T00:57:51.856Z,41.73
2019-02-27T01:00:17.399Z,41.74
2019-02-27T01:02:43.397Z,41.74
2019-02-27T01:05:09.492Z,41.59
2019-02-27T01:07:35.401Z,41.77
2019-02-27T01:10:01.403Z,41.73
2019-02-27T01:12:27.418Z,41.67
2019-02-27T01:14:53.399Z,41.65
2019-02-27T01:17:20.938Z,41.47
2019-02-27T01:19:45.390Z,41.37
2019-02-27T01:22:11.402Z,41.69
2019-02-27T01:24:37.386Z,41.74
2019-02-27T01:27:04.669Z,41.55
2019-02-27T01:29:29.384Z,41.61
2019-02-27T01:31:57.678Z,41.67
2019-02-27T01:34:21.380Z,41.53
2019-02-27T01:36:47.380Z,41.64
2019-02-27T01:39:13.383Z,41.49
2019-02-27T01:41:39.388Z,41.72
2019-02-27T01:44:05.389Z,41.53
2019-02-27T01:46:31.388Z,41.37
2019-02-27T01:48:57.463Z,41.29
2019-02-27T01:51:25.766Z,41.74
2019-02-27T01:53:49.493Z,41.55
2019-02-27T01:56:15.489Z,41.67
2019-02-27T01:58:44.285Z,41.74
2019-02-27T02:01:07.486Z,41.72
2019-02-27T02:03:33.485Z,41.73
2019-02-27T02:05:59.867Z,41.69
2019-02-27T02:08:25.469Z,41.63
2019-02-27T02:10:51.473Z,41.67
2019-02-27T02:13:17.476Z,41.60
2019-02-27T02:15:43.471Z,41.75
2019-02-27T02:18:11.899Z,41.83
2019-02-27T02:20:35.479Z,41.67
2019-02-27T02:23:01.480Z,41.86
2019-02-27T02:25:27.988Z,41.58
2019-02-27T02:27:53.516Z,41.67
2019-02-27T02:30:19.514Z,41.28
2019-02-27T02:32:51.869Z,41.68
2019-02-27T02:35:14.843Z,41.57
2019-02-27T02:37:38.182Z,41.72
2019-02-27T02:40:03.508Z,41.73
2019-02-27T02:42:29.505Z,41.82
2019-02-27T02:44:57.727Z,41.47
2019-02-27T02:47:21.568Z,41.50
2019-02-27T02:49:47.500Z,41.78
2019-02-27T02:52:13.499Z,41.75
2019-02-27T02:54:39.498Z,41.78
2019-02-27T02:57:05.507Z,41.35
2019-02-27T02:59:31.507Z,41.26
2019-02-27T03:01:57.499Z,41.47
2019-02-27T03:04:23.495Z,41.50
2019-02-27T03:06:49.490Z,41.67
2019-02-27T03:09:15.496Z,41.66
2019-02-27T03:11:41.493Z,41.67
2019-02-27T03:14:07.493Z,41.54
2019-02-27T03:16:33.490Z,41.73
2019-02-27T03:19:05.058Z,41.87
2019-02-27T03:21:28.545Z,41.44
2019-02-27T03:23:52.536Z,41.74
2019-02-27T03:26:17.773Z,41.37
2019-02-27T03:28:43.527Z,41.41
2019-02-27T03:31:16.053Z,41.64
2019-02-27T03:33:35.524Z,41.74
2019-02-27T03:36:03.465Z,41.70
2019-02-27T03:38:27.530Z,41.41
2019-02-27T03:40:53.527Z,41.66
2019-02-27T03:43:19.526Z,41.86
2019-02-27T03:45:45.531Z,41.89
2019-02-27T03:48:11.535Z,41.83
2019-02-27T03:50:37.554Z,41.46
2019-02-27T03:53:03.538Z,41.80
2019-02-27T03:55:32.854Z,41.85
2019-02-27T03:57:56.114Z,41.80
2019-02-27T04:00:21.546Z,41.89
2019-02-27T04:02:47.545Z,41.43
2019-02-27T04:05:13.569Z,41.51
2019-02-27T04:07:39.568Z,41.61
2019-02-27T04:10:05.564Z,41.62
2019-02-27T04:12:31.573Z,41.77
2019-02-27T04:14:57.569Z,41.42
2019-02-27T04:17:23.571Z,41.91
2019-02-27T04:19:49.570Z,41.74
2019-02-27T04:22:15.564Z,41.87
2019-02-27T04:24:41.564Z,41.94
2019-02-27T04:27:07.563Z,41.71
2019-02-27T04:29:33.573Z,41.61
2019-02-27T04:32:00.365Z,41.82
2019-02-27T04:34:26.369Z,41.86
2019-02-27T04:36:53.027Z,41.67
2019-02-27T04:39:19.027Z,41.68
2019-02-27T04:41:45.022Z,41.52
2019-02-27T04:44:11.027Z,41.85
2019-02-27T04:46:37.019Z,41.82
2019-02-27T04:49:04.952Z,41.58
2019-02-27T04:51:29.029Z,41.59
2019-02-27T04:53:55.029Z,41.91
2019-02-27T04:56:23.261Z,41.95
2019-02-27T04:58:47.022Z,41.95
2019-02-27T05:01:13.022Z,41.77
2019-02-27T05:03:39.023Z,42.07
2019-02-27T05:06:05.020Z,42.03
2019-02-27T05:08:31.019Z,42.08
2019-02-27T05:10:57.023Z,41.86
2019-02-27T05:13:23.019Z,42.01
2019-02-27T05:15:49.023Z,41.95
2019-02-27T05:18:15.023Z,41.92
2019-02-27T05:20:44.967Z,42.08
2019-02-27T05:23:07.041Z,41.87
2019-02-27T05:25:33.046Z,42.02
2019-02-27T05:28:01.263Z,42.17
2019-02-27T05:30:25.080Z,41.83
2019-02-27T05:32:51.078Z,41.88
2019-02-27T05:35:17.103Z,42.17
2019-02-27T05:37:43.091Z,42.21
2019-02-27T05:40:09.188Z,42.25
2019-02-27T05:42:38.567Z,42.44
2019-02-27T05:45:01.185Z,42.60
2019-02-27T05:47:27.186Z,42.61
2019-02-27T05:49:53.213Z,42.65
2019-02-27T05:52:19.245Z,42.71
2019-02-27T05:54:45.272Z,42.73
2019-02-27T05:57:11.279Z,42.79
2019-02-27T05:59:37.275Z,42.77
2019-02-27T06:02:03.287Z,42.74
2019-02-27T06:04:29.337Z,42.81
2019-02-27T06:06:55.335Z,42.91
2019-02-27T06:09:21.335Z,42.93
2019-02-27T06:11:47.334Z,42.94
2019-02-27T06:14:13.335Z,42.91
2019-02-27T06:16:40.826Z,42.92
2019-02-27T06:19:05.350Z,42.90
2019-02-27T06:21:31.347Z,42.88
2019-02-27T06:23:57.347Z,42.91
2019-02-27T06:26:23.357Z,42.92
2019-02-27T06:28:49.419Z,42.95
2019-02-27T06:31:15.480Z,42.94
2019-02-27T06:33:45.088Z,42.86
2019-02-27T06:36:08.462Z,42.89
2019-02-27T06:38:33.503Z,42.89
2019-02-27T06:40:59.546Z,43.05
2019-02-27T06:43:27.317Z,43.09
2019-02-27T06:45:51.528Z,43.15
2019-02-27T06:48:17.527Z,43.25
2019-02-27T06:50:43.541Z,43.37
2019-02-27T06:53:09.544Z,43.41
2019-02-27T06:55:35.576Z,43.48
2019-02-27T06:58:01.543Z,43.58
2019-02-27T07:00:27.585Z,43.54
2019-02-27T07:02:55.498Z,43.58
2019-02-27T07:05:19.620Z,43.45
2019-02-27T07:07:45.631Z,43.47
2019-02-27T07:10:11.632Z,43.48
2019-02-27T07:12:37.908Z,43.44
2019-02-27T07:15:03.904Z,43.29
2019-02-27T07:17:31.717Z,43.34
2019-02-27T07:19:55.928Z,43.37
2019-02-27T07:22:21.939Z,43.35
2019-02-27T07:24:47.937Z,43.32
2019-02-27T07:27:13.933Z,43.24
2019-02-27T07:29:39.938Z,43.16
2019-02-27T07:32:06.115Z,43.16
2019-02-27T07:34:32.139Z,43.25
2019-02-27T07:36:58.136Z,43.17
2019-02-27T07:39:24.147Z,43.17
2019-02-27T07:41:50.153Z,43.08
2019-02-27T07:44:16.148Z,43.16
2019-02-27T07:46:42.152Z,43.13
2019-02-27T07:49:08.145Z,43.15
2019-02-27T07:51:34.169Z,43.08
2019-02-27T07:54:00.179Z,43.04
2019-02-27T07:56:26.178Z,43.00
2019-02-27T07:58:52.181Z,42.99
2019-02-27T08:01:20.894Z,43.05
2019-02-27T08:03:45.578Z,43.09
2019-02-27T08:06:10.199Z,43.16
2019-02-27T08:08:36.199Z,43.25
2019-02-27T08:11:02.206Z,43.20
2019-02-27T08:13:29.719Z,43.26
2019-02-27T08:15:54.220Z,43.29
2019-02-27T08:18:29.580Z,43.32
2019-02-27T08:20:48.047Z,43.30
2019-02-27T08:23:12.227Z,43.40
2019-02-27T08:25:38.231Z,43.38
2019-02-27T08:28:04.222Z,43.41
2019-02-27T08:30:30.265Z,43.47
2019-02-27T08:32:56.272Z,43.88
2019-02-27T08:35:22.271Z,43.79
2019-02-27T08:37:48.271Z,43.89
2019-02-27T08:40:14.291Z,43.92
2019-02-27T08:42:40.629Z,43.94
2019-02-27T08:45:06.361Z,43.96
2019-02-27T08:47:33.662Z,43.98
2019-02-27T08:49:58.653Z,44.05
2019-02-27T08:52:24.428Z,44.08
2019-02-27T08:54:50.419Z,44.13
2019-02-27T08:57:16.415Z,44.07
2019-02-27T08:59:42.531Z,44.24
2019-02-27T09:02:08.530Z,44.54
2019-02-27T09:04:34.534Z,44.13
2019-02-27T09:07:02.842Z,44.17
2019-02-27T09:09:26.531Z,44.28
2019-02-27T09:11:52.544Z,44.26
2019-02-27T09:14:18.540Z,44.50
2019-02-27T09:16:44.543Z,44.59
2019-02-27T09:21:36.549Z,44.09
2019-02-27T09:24:02.560Z,43.78
2019-02-27T09:26:28.559Z,43.50
2019-02-27T09:28:54.556Z,43.19
2019-02-27T09:31:20.598Z,43.00
2019-02-27T09:33:46.616Z,42.82
2019-02-27T09:36:12.600Z,42.73
2019-02-27T09:38:38.603Z,42.61
2019-02-27T09:41:04.708Z,42.77
2019-02-27T09:43:32.233Z,43.35
2019-02-27T09:45:59.716Z,43.02
2019-02-27T09:48:26.811Z,43.44
2019-02-27T09:51:16.151Z,43.66
2019-02-27T09:53:47.803Z,43.70
2019-02-27T09:56:13.824Z,43.67
2019-02-27T09:58:45.094Z,43.61
2019-02-27T10:01:06.035Z,43.66
2019-02-27T10:03:35.612Z,43.63
2019-02-27T10:06:03.153Z,43.65
2019-02-27T10:08:32.647Z,43.64
2019-02-27T10:11:05.153Z,43.59
2019-02-27T10:13:31.115Z,43.65
2019-02-27T10:16:00.478Z,43.67
2019-02-27T10:18:23.132Z,43.63
2019-02-27T10:20:49.148Z,43.61
2019-02-27T10:23:15.267Z,43.63
2019-02-27T10:25:43.468Z,43.64
2019-02-27T10:28:07.277Z,43.64
2019-02-27T10:30:33.285Z,43.62
2019-02-27T10:32:59.283Z,43.64
2019-02-27T10:35:26.826Z,43.67
2019-02-27T10:37:54.233Z,43.73
2019-02-27T10:40:17.316Z,43.68
2019-02-27T10:42:43.337Z,43.75
2019-02-27T10:45:10.156Z,43.68
2019-02-27T10:47:36.537Z,43.79
2019-02-27T10:50:02.197Z,43.70
2019-02-27T10:52:27.348Z,43.75
2019-02-27T10:54:53.358Z,43.70
2019-02-27T10:57:19.343Z,43.73
2019-02-27T10:59:45.347Z,43.69
2019-02-27T11:02:12.516Z,43.70
2019-02-27T11:04:38.911Z,43.64
2019-02-27T11:07:03.353Z,43.67
2019-02-27T11:09:29.349Z,43.73
2019-02-27T11:11:55.352Z,43.82
2019-02-27T11:14:21.394Z,43.90
2019-02-27T11:16:47.433Z,43.94
2019-02-27T11:19:14.158Z,43.89
2019-02-27T11:21:39.436Z,43.98
2019-02-27T11:24:05.436Z,43.90
2019-02-27T11:26:33.365Z,43.97
2019-02-27T11:28:57.863Z,43.86
2019-02-27T11:31:23.450Z,43.73
2019-02-27T11:33:49.451Z,43.76
2019-02-27T11:36:15.456Z,43.77
2019-02-27T11:38:41.452Z,43.71
2019-02-27T11:41:07.456Z,43.78
2019-02-27T11:43:33.451Z,43.72
2019-02-27T11:45:59.459Z,43.71
2019-02-27T11:48:25.451Z,43.72
2019-02-27T11:50:51.468Z,43.64
2019-02-27T11:53:17.460Z,43.71
2019-02-27T11:55:43.485Z,43.70
2019-02-27T11:58:09.481Z,43.71
2019-02-27T12:00:35.483Z,43.95
2019-02-27T12:03:01.488Z,43.97
2019-02-27T12:05:30.775Z,43.74
2019-02-27T12:07:53.496Z,43.71
2019-02-27T12:10:19.531Z,43.70
2019-02-27T12:12:45.532Z,43.70
2019-02-27T12:15:11.537Z,43.63
2019-02-27T12:17:37.534Z,43.65
2019-02-27T12:20:03.527Z,43.62
2019-02-27T12:22:29.525Z,43.53
2019-02-27T12:24:55.527Z,43.59
2019-02-27T12:27:47.333Z,43.61
2019-02-27T12:29:47.559Z,43.58
2019-02-27T12:32:13.544Z,43.60
2019-02-27T12:34:39.541Z,43.51
2019-02-27T12:37:05.540Z,43.53
2019-02-27T12:39:31.539Z,43.49
2019-02-27T12:41:57.535Z,43.27
2019-02-27T12:44:23.536Z,43.34
2019-02-27T12:46:49.535Z,43.29
2019-02-27T12:49:16.889Z,43.26
2019-02-27T12:51:41.548Z,43.34
2019-02-27T12:54:07.573Z,43.28
2019-02-27T12:56:33.570Z,43.21
2019-02-27T12:58:59.588Z,43.14
2019-02-27T13:01:25.930Z,43.13
2019-02-27T13:03:51.932Z,43.00
2019-02-27T13:06:18.027Z,43.04
2019-02-27T13:08:44.019Z,43.11
2019-02-27T13:11:10.022Z,43.04
2019-02-27T13:13:36.017Z,42.94
2019-02-27T13:16:02.216Z,42.95
2019-02-27T13:18:31.542Z,43.06
2019-02-27T13:20:54.268Z,42.88
2019-02-27T13:23:20.272Z,43.01
2019-02-27T13:25:46.270Z,43.04
2019-02-27T13:28:14.581Z,42.99
2019-02-27T13:30:41.285Z,42.99
2019-02-27T13:33:04.378Z,43.06
2019-02-27T13:35:30.374Z,42.84
2019-02-27T13:37:56.371Z,43.03
2019-02-27T13:40:22.407Z,43.22
2019-02-27T13:42:52.365Z,43.16
2019-02-27T13:45:14.406Z,43.22
2019-02-27T13:47:40.442Z,43.32
2019-02-27T13:50:06.446Z,43.25
2019-02-27T13:52:32.574Z,43.29
2019-02-27T13:54:58.588Z,43.35
2019-02-27T13:57:25.830Z,43.47
2019-02-27T13:59:50.574Z,43.42
2019-02-27T14:02:16.589Z,43.43
2019-02-27T14:04:42.580Z,43.39
2019-02-27T14:07:08.587Z,43.29
2019-02-27T14:09:34.588Z,43.46
2019-02-27T14:12:00.582Z,43.26
2019-02-27T14:14:26.609Z,43.42
2019-02-27T14:16:52.618Z,43.18
2019-02-27T14:19:21.382Z,43.28
2019-02-27T14:21:44.993Z,43.22
2019-02-27T14:24:10.751Z,43.16
2019-02-27T14:26:38.299Z,43.29
2019-02-27T14:29:04.155Z,43.32
2019-02-27T14:31:28.755Z,43.27
2019-02-27T14:33:55.043Z,43.33
2019-02-27T14:36:20.773Z,43.17
2019-02-27T14:38:46.760Z,43.35
2019-02-27T14:41:14.521Z,43.34
2019-02-27T14:43:38.754Z,43.41
2019-02-27T14:46:04.769Z,43.23
2019-02-27T14:48:30.764Z,43.38
2019-02-27T14:50:56.768Z,43.27
2019-02-27T14:53:22.775Z,43.32
2019-02-27T14:55:48.771Z,43.35
2019-02-27T14:58:14.828Z,43.36
2019-02-27T15:00:41.180Z,43.31
2019-02-27T15:03:06.832Z,43.32
2019-02-27T15:05:32.828Z,43.34
2019-02-27T15:07:58.832Z,43.32
2019-02-27T15:10:24.829Z,43.27
2019-02-27T15:12:53.896Z,43.21
2019-02-27T15:15:16.831Z,43.26
2019-02-27T15:17:42.836Z,43.23
2019-02-27T15:20:08.832Z,43.23
2019-02-27T15:22:34.863Z,43.19
2019-02-27T15:25:00.863Z,43.11
2019-02-27T15:27:26.905Z,43.08
2019-02-27T15:29:52.903Z,43.13
2019-02-27T15:32:18.906Z,43.06
2019-02-27T15:34:45.916Z,43.13
2019-02-27T15:37:11.026Z,43.10
2019-02-27T15:39:36.998Z,43.02
2019-02-27T15:42:03.285Z,42.99
2019-02-27T15:44:31.382Z,43.06
2019-02-27T15:46:56.653Z,43.07
2019-02-27T15:49:21.101Z,42.87
2019-02-27T15:51:48.143Z,43.02
2019-02-27T15:54:14.145Z,43.10
2019-02-27T15:56:41.991Z,43.08
2019-02-27T15:59:08.154Z,43.11
2019-02-27T16:01:33.067Z,43.18
2019-02-27T16:03:58.179Z,43.12
2019-02-27T16:06:25.559Z,43.26
2019-02-27T16:08:50.278Z,43.32
2019-02-27T16:11:16.563Z,43.33
2019-02-27T16:13:42.277Z,43.34
2019-02-27T16:16:08.324Z,43.35
2019-02-27T16:18:36.915Z,43.34
2019-02-27T16:21:00.374Z,43.36
2019-02-27T16:23:26.373Z,43.33
2019-02-27T16:25:53.744Z,43.31
2019-02-27T16:28:18.371Z,43.31
2019-02-27T16:30:44.374Z,43.35
2019-02-27T16:33:10.371Z,43.58
2019-02-27T16:35:41.433Z,43.65
2019-02-27T16:38:02.415Z,43.57
2019-02-27T16:40:28.449Z,43.55
2019-02-27T16:42:54.436Z,43.58
2019-02-27T16:45:20.537Z,43.59
2019-02-27T16:47:46.609Z,43.66
2019-02-27T16:50:12.615Z,43.63
2019-02-27T16:52:39.202Z,43.62
2019-02-27T16:55:04.622Z,43.50
2019-02-27T16:57:30.615Z,43.51
2019-02-27T16:59:56.665Z,43.31
2019-02-27T17:02:22.665Z,43.30
2019-02-27T17:04:48.673Z,43.28
2019-02-27T17:07:14.956Z,43.14
2019-02-27T17:09:41.044Z,43.12
2019-02-27T17:12:07.930Z,43.11
2019-02-27T17:14:33.355Z,43.14
2019-02-27T17:16:59.399Z,43.28
2019-02-27T17:19:25.392Z,43.28
2019-02-27T17:21:51.391Z,43.37
2019-02-27T17:24:21.014Z,43.46
2019-02-27T17:26:43.406Z,43.57
2019-02-27T17:29:09.400Z,43.54
2019-02-27T17:31:35.608Z,43.63
2019-02-27T17:34:01.479Z,43.66
2019-02-27T17:36:31.495Z,43.68
2019-02-27T17:38:53.483Z,43.70
2019-02-27T17:41:19.477Z,43.66
2019-02-27T17:43:45.526Z,43.65
2019-02-27T17:46:11.531Z,43.62
2019-02-27T17:48:37.529Z,43.60
2019-02-27T17:51:06.477Z,43.66
2019-02-27T17:53:30.359Z,43.60
2019-02-27T17:55:57.465Z,43.67
2019-02-27T17:58:23.461Z,43.65
2019-02-27T18:00:51.120Z,43.65
2019-02-27T18:03:15.481Z,43.64
2019-02-27T18:05:41.508Z,43.68
2019-02-27T18:08:07.505Z,43.67
2019-02-27T18:10:37.278Z,43.63
2019-02-27T18:13:01.446Z,43.64
2019-02-27T18:15:29.586Z,43.58
2019-02-27T18:17:52.709Z,43.66
2019-02-27T18:20:18.708Z,43.70
2019-02-27T18:22:45.927Z,43.66
2019-02-27T18:25:10.705Z,43.62
2019-02-27T18:27:36.838Z,43.77
2019-02-27T18:30:02.831Z,43.74
2019-02-27T18:32:28.830Z,43.80
2019-02-27T18:34:55.272Z,43.84
2019-02-27T18:37:20.857Z,43.89
2019-02-27T18:39:46.855Z,43.90
2019-02-27T18:42:12.854Z,43.90
2019-02-27T18:44:41.484Z,43.88
2019-02-27T18:47:04.868Z,43.83
2019-02-27T18:49:30.867Z,43.82
2019-02-27T18:51:56.863Z,43.85
2019-02-27T18:54:25.107Z,43.91
2019-02-27T18:56:49.566Z,43.89
2019-02-27T18:59:15.071Z,43.95
2019-02-27T19:01:41.385Z,43.94
2019-02-27T19:04:09.120Z,43.97
2019-02-27T19:06:33.077Z,44.00
2019-02-27T19:09:00.450Z,44.04
2019-02-27T19:11:25.085Z,44.03
2019-02-27T19:13:51.086Z,44.03
2019-02-27T19:16:17.480Z,44.05
2019-02-27T19:18:43.093Z,44.19
2019-02-27T19:21:09.097Z,44.26
2019-02-27T19:23:35.096Z,44.34
2019-02-27T19:26:01.094Z,44.38
2019-02-27T19:28:27.096Z,44.49
2019-02-27T19:30:53.161Z,44.49
2019-02-27T19:33:19.193Z,44.55
2019-02-27T19:35:45.184Z,44.43
2019-02-27T19:38:12.895Z,44.39
2019-02-27T19:40:37.175Z,44.46
2019-02-27T19:43:03.285Z,44.48
2019-02-27T19:45:29.287Z,44.41
2019-02-27T19:47:55.855Z,44.42
2019-02-27T19:50:21.917Z,44.43
2019-02-27T19:52:47.915Z,44.47
2019-02-27T19:55:13.931Z,44.46
2019-02-27T19:57:42.440Z,44.44
2019-02-27T20:00:06.087Z,44.38
2019-02-27T20:02:32.086Z,44.43
2019-02-27T20:04:58.170Z,44.38
2019-02-27T20:07:24.167Z,44.34
2019-02-27T20:09:51.414Z,44.60
2019-02-27T20:12:16.523Z,44.47
2019-02-27T20:14:42.390Z,44.51
2019-02-27T20:17:08.397Z,44.61
2019-02-27T20:19:34.440Z,44.82
2019-02-27T20:22:00.467Z,44.84
2019-02-27T20:24:26.467Z,44.91
2019-02-27T20:26:54.851Z,44.85
2019-02-27T20:29:18.474Z,44.65
2019-02-27T20:31:44.472Z,44.69
2019-02-27T20:34:11.595Z,44.66
2019-02-27T20:36:36.467Z,44.67
2019-02-27T20:39:03.310Z,44.58
2019-02-27T20:41:28.463Z,44.61
2019-02-27T20:43:54.574Z,44.57
2019-02-27T20:46:20.572Z,44.51
2019-02-27T20:48:46.590Z,44.45
2019-02-27T20:51:12.601Z,44.40
2019-02-27T20:53:38.604Z,44.40
2019-02-27T20:56:04.608Z,44.39
2019-02-27T20:58:30.615Z,44.36
2019-02-27T21:00:56.607Z,44.42
2019-02-27T21:03:26.919Z,44.42
2019-02-27T21:05:48.680Z,44.45
2019-02-27T21:08:14.606Z,44.43
2019-02-27T21:10:40.619Z,44.45
2019-02-27T21:13:06.621Z,44.47
2019-02-27T21:15:33.449Z,44.49
2019-02-27T21:17:58.870Z,44.48
2019-02-27T21:20:24.671Z,44.49
2019-02-27T21:22:50.681Z,44.48
2019-02-27T21:25:16.677Z,44.55
2019-02-27T21:27:42.677Z,44.75
2019-02-27T21:30:08.671Z,44.73
2019-02-27T21:32:36.150Z,44.66
2019-02-27T21:35:00.675Z,44.69
2019-02-27T21:37:26.676Z,44.68
2019-02-27T21:39:52.680Z,44.70
2019-02-27T21:42:19.527Z,44.75
2019-02-27T21:44:44.677Z,44.68
2019-02-27T21:47:10.681Z,44.70
2019-02-27T21:49:36.671Z,44.68
2019-02-27T21:52:02.671Z,44.66
2019-02-27T21:54:28.667Z,44.65
2019-02-27T21:56:55.206Z,44.65
2019-02-27T21:59:20.672Z,44.65
2019-02-27T22:01:46.667Z,44.61
2019-02-27T22:04:12.672Z,44.60
2019-02-27T22:06:38.672Z,44.61
2019-02-27T22:09:04.670Z,44.56
2019-02-27T22:11:30.659Z,44.59
2019-02-27T22:13:56.660Z,44.57
2019-02-27T22:16:22.660Z,44.56
2019-02-27T22:18:48.670Z,44.54
2019-02-27T22:21:14.668Z,44.55
2019-02-27T22:23:40.668Z,44.54
2019-02-27T22:26:06.674Z,44.52
2019-02-27T22:28:32.677Z,44.51
2019-02-27T22:30:58.673Z,44.49
2019-02-27T22:33:24.676Z,44.46
2019-02-27T22:35:50.668Z,44.48
2019-02-27T22:38:16.691Z,44.47
2019-02-27T22:40:42.686Z,44.47
2019-02-27T22:43:08.684Z,44.46
2019-02-27T22:45:36.101Z,44.43
2019-02-27T22:48:00.675Z,44.43
2019-02-27T22:50:26.684Z,44.42
2019-02-27T22:52:54.616Z,44.45
2019-02-27T22:55:18.680Z,44.42
2019-02-27T22:57:44.673Z,44.37
2019-02-27T23:00:11.376Z,44.41
2019-02-27T23:02:36.667Z,44.38
2019-02-27T23:05:04.941Z,44.38
2019-02-27T23:07:28.664Z,44.40
2019-02-27T23:09:57.520Z,44.32
2019-02-27T23:12:20.683Z,44.32
2019-02-27T23:14:46.688Z,44.36
2019-02-27T23:17:12.685Z,44.28
2019-02-27T23:19:38.707Z,44.28
2019-02-27T23:22:04.699Z,44.25
2019-02-27T23:24:30.692Z,44.30
2019-02-27T23:26:56.692Z,44.25
2019-02-27T23:29:22.689Z,44.28
2019-02-27T23:31:48.687Z,44.21
2019-02-27T23:34:14.684Z,44.21
2019-02-27T23:36:40.693Z,44.24
2019-02-27T23:39:08.651Z,44.23
2019-02-27T23:41:32.684Z,44.30
2019-02-27T23:43:58.684Z,44.23
2019-02-27T23:46:24.680Z,44.24
2019-02-27T23:48:50.679Z,44.17
2019-02-27T23:51:17.000Z,44.17
2019-02-27T23:53:42.681Z,44.26
2019-02-27T23:56:08.676Z,44.19
2019-02-27T23:58:34.694Z,44.11
